sensor_id;sensor_type;location;lat;lon;timestamp;P1;durP1;ratioP1;P2;durP2;ratioP2
33188;SDS011;52601;53.070;10.600;2023-07-30T00:02:08;0.52;;;0.52;;
33188;SDS011;52601;53.070;10.600;2023-07-30T00:04:53;0.32;;;0.25;;
33188;SDS011;52601;53.070;10.600;2023-07-30T00:07:39;0.28;;;0.28;;
33188;SDS011;52601;53.070;10.600;2023-07-30T00:10:24;0.22;;;0.22;;
33188;SDS011;52601;53.070;10.600;2023-07-30T00:13:10;0.20;;;0.20;;
33188;SDS011;52601;53.070;10.600;2023-07-30T00:15:55;0.10;;;0.10;;
33188;SDS011;52601;53.070;10.600;2023-07-30T00:18:41;0.90;;;0.37;;
33188;SDS011;52601;53.070;10.600;2023-07-30T00:21:27;0.70;;;0.70;;
33188;SDS011;52601;53.070;10.600;2023-07-30T00:24:12;0.20;;;0.20;;
33188;SDS011;52601;53.070;10.600;2023-07-30T00:26:58;0.20;;;0.20;;
33188;SDS011;52601;53.070;10.600;2023-07-30T00:29:44;0.20;;;0.20;;
33188;SDS011;52601;53.070;10.600;2023-07-30T00:32:29;0.70;;;0.60;;
33188;SDS011;52601;53.070;10.600;2023-07-30T00:35:15;0.17;;;0.17;;
33188;SDS011;52601;53.070;10.600;2023-07-30T00:38:01;0.28;;;0.28;;
33188;SDS011;52601;53.070;10.600;2023-07-30T00:40:46;0.30;;;0.30;;
33188;SDS011;52601;53.070;10.600;2023-07-30T00:43:32;0.17;;;0.17;;
33188;SDS011;52601;53.070;10.600;2023-07-30T00:46:17;0.22;;;0.22;;
33188;SDS011;52601;53.070;10.600;2023-07-30T00:49:03;2.10;;;0.30;;
33188;SDS011;52601;53.070;10.600;2023-07-30T00:51:49;0.15;;;0.15;;
33188;SDS011;52601;53.070;10.600;2023-07-30T00:54:34;0.30;;;0.30;;
33188;SDS011;52601;53.070;10.600;2023-07-30T00:57:20;0.20;;;0.20;;
33188;SDS011;52601;53.070;10.600;2023-07-30T01:00:06;1.70;;;0.30;;
33188;SDS011;52601;53.070;10.600;2023-07-30T01:02:54;0.30;;;0.20;;
33188;SDS011;52601;53.070;10.600;2023-07-30T01:05:40;0.38;;;0.28;;
33188;SDS011;52601;53.070;10.600;2023-07-30T01:08:25;0.30;;;0.30;;
33188;SDS011;52601;53.070;10.600;2023-07-30T01:11:11;0.30;;;0.30;;
33188;SDS011;52601;53.070;10.600;2023-07-30T01:13:57;0.30;;;0.30;;
33188;SDS011;52601;53.070;10.600;2023-07-30T01:16:43;0.20;;;0.20;;
33188;SDS011;52601;53.070;10.600;2023-07-30T01:19:29;0.10;;;0.10;;
33188;SDS011;52601;53.070;10.600;2023-07-30T01:22:15;0.20;;;0.20;;
33188;SDS011;52601;53.070;10.600;2023-07-30T01:25:01;0.75;;;0.38;;
33188;SDS011;52601;53.070;10.600;2023-07-30T01:27:48;2.50;;;0.22;;
33188;SDS011;52601;53.070;10.600;2023-07-30T01:30:42;0.20;;;0.20;;
33188;SDS011;52601;53.070;10.600;2023-07-30T01:33:30;0.10;;;0.10;;
33188;SDS011;52601;53.070;10.600;2023-07-30T01:36:17;1.00;;;0.20;;
33188;SDS011;52601;53.070;10.600;2023-07-30T01:39:04;0.30;;;0.30;;
33188;SDS011;52601;53.070;10.600;2023-07-30T01:41:53;0.20;;;0.20;;
33188;SDS011;52601;53.070;10.600;2023-07-30T01:44:39;0.20;;;0.20;;
33188;SDS011;52601;53.070;10.600;2023-07-30T01:47:25;0.20;;;0.20;;
33188;SDS011;52601;53.070;10.600;2023-07-30T01:50:10;0.15;;;0.15;;
33188;SDS011;52601;53.070;10.600;2023-07-30T01:52:56;0.20;;;0.20;;
33188;SDS011;52601;53.070;10.600;2023-07-30T01:55:42;0.40;;;0.40;;
33188;SDS011;52601;53.070;10.600;2023-07-30T01:58:31;0.30;;;0.20;;
33188;SDS011;52601;53.070;10.600;2023-07-30T02:01:17;0.90;;;0.53;;
33188;SDS011;52601;53.070;10.600;2023-07-30T02:04:02;0.30;;;0.30;;
33188;SDS011;52601;53.070;10.600;2023-07-30T02:06:48;0.75;;;0.57;;
33188;SDS011;52601;53.070;10.600;2023-07-30T02:09:33;0.20;;;0.20;;
33188;SDS011;52601;53.070;10.600;2023-07-30T02:12:19;0.40;;;0.30;;
33188;SDS011;52601;53.070;10.600;2023-07-30T02:15:04;0.20;;;0.20;;
33188;SDS011;52601;53.070;10.600;2023-07-30T02:17:50;1.20;;;0.57;;
33188;SDS011;52601;53.070;10.600;2023-07-30T02:20:36;0.17;;;0.17;;
33188;SDS011;52601;53.070;10.600;2023-07-30T02:23:22;0.25;;;0.10;;
33188;SDS011;52601;53.070;10.600;2023-07-30T02:26:07;0.20;;;0.20;;
33188;SDS011;52601;53.070;10.600;2023-07-30T02:28:53;0.20;;;0.20;;
33188;SDS011;52601;53.070;10.600;2023-07-30T02:31:38;0.40;;;0.40;;
33188;SDS011;52601;53.070;10.600;2023-07-30T02:34:24;0.20;;;0.20;;
33188;SDS011;52601;53.070;10.600;2023-07-30T02:37:09;0.50;;;0.30;;
33188;SDS011;52601;53.070;10.600;2023-07-30T02:39:55;0.50;;;0.50;;
33188;SDS011;52601;53.070;10.600;2023-07-30T02:42:41;0.20;;;0.20;;
33188;SDS011;52601;53.070;10.600;2023-07-30T02:45:27;0.20;;;0.20;;
33188;SDS011;52601;53.070;10.600;2023-07-30T02:48:12;0.60;;;0.30;;
33188;SDS011;52601;53.070;10.600;2023-07-30T02:50:58;0.20;;;0.20;;
33188;SDS011;52601;53.070;10.600;2023-07-30T02:53:43;0.10;;;0.10;;
33188;SDS011;52601;53.070;10.600;2023-07-30T02:56:30;1.23;;;0.47;;
33188;SDS011;52601;53.070;10.600;2023-07-30T02:59:15;0.40;;;0.30;;
33188;SDS011;52601;53.070;10.600;2023-07-30T03:02:01;0.10;;;0.10;;
33188;SDS011;52601;53.070;10.600;2023-07-30T03:04:47;0.30;;;0.22;;
33188;SDS011;52601;53.070;10.600;2023-07-30T03:07:33;0.30;;;0.30;;
33188;SDS011;52601;53.070;10.600;2023-07-30T03:10:18;0.30;;;0.20;;
33188;SDS011;52601;53.070;10.600;2023-07-30T03:13:03;0.20;;;0.20;;
33188;SDS011;52601;53.070;10.600;2023-07-30T03:15:49;0.20;;;0.20;;
33188;SDS011;52601;53.070;10.600;2023-07-30T03:18:34;0.30;;;0.30;;
33188;SDS011;52601;53.070;10.600;2023-07-30T03:21:20;0.40;;;0.40;;
33188;SDS011;52601;53.070;10.600;2023-07-30T03:24:06;0.20;;;0.10;;
33188;SDS011;52601;53.070;10.600;2023-07-30T03:26:51;0.10;;;0.10;;
33188;SDS011;52601;53.070;10.600;2023-07-30T03:29:36;0.47;;;0.30;;
33188;SDS011;52601;53.070;10.600;2023-07-30T03:32:22;0.50;;;0.40;;
33188;SDS011;52601;53.070;10.600;2023-07-30T03:35:08;0.10;;;0.10;;
33188;SDS011;52601;53.070;10.600;2023-07-30T03:37:53;0.30;;;0.30;;
33188;SDS011;52601;53.070;10.600;2023-07-30T03:40:39;0.40;;;0.40;;
33188;SDS011;52601;53.070;10.600;2023-07-30T03:43:25;0.20;;;0.15;;
33188;SDS011;52601;53.070;10.600;2023-07-30T03:46:10;4.00;;;0.40;;
33188;SDS011;52601;53.070;10.600;2023-07-30T03:48:56;0.40;;;0.40;;
33188;SDS011;52601;53.070;10.600;2023-07-30T03:51:41;0.20;;;0.20;;
33188;SDS011;52601;53.070;10.600;2023-07-30T03:54:27;0.10;;;0.10;;
33188;SDS011;52601;53.070;10.600;2023-07-30T03:57:12;0.40;;;0.20;;
33188;SDS011;52601;53.070;10.600;2023-07-30T03:59:57;0.28;;;0.28;;
33188;SDS011;52601;53.070;10.600;2023-07-30T04:02:43;0.30;;;0.30;;
33188;SDS011;52601;53.070;10.600;2023-07-30T04:05:29;0.40;;;0.22;;
33188;SDS011;52601;53.070;10.600;2023-07-30T04:08:15;0.15;;;0.15;;
33188;SDS011;52601;53.070;10.600;2023-07-30T04:11:01;1.10;;;0.45;;
33188;SDS011;52601;53.070;10.600;2023-07-30T04:13:46;0.40;;;0.40;;
33188;SDS011;52601;53.070;10.600;2023-07-30T04:16:32;0.20;;;0.20;;
33188;SDS011;52601;53.070;10.600;2023-07-30T04:19:18;0.60;;;0.33;;
33188;SDS011;52601;53.070;10.600;2023-07-30T04:22:03;0.10;;;0.10;;
33188;SDS011;52601;53.070;10.600;2023-07-30T04:24:49;0.90;;;0.60;;
33188;SDS011;52601;53.070;10.600;2023-07-30T04:27:35;0.38;;;0.38;;
33188;SDS011;52601;53.070;10.600;2023-07-30T04:30:20;0.17;;;0.07;;
33188;SDS011;52601;53.070;10.600;2023-07-30T04:33:06;0.10;;;0.10;;
33188;SDS011;52601;53.070;10.600;2023-07-30T04:35:52;0.22;;;0.20;;
33188;SDS011;52601;53.070;10.600;2023-07-30T04:38:37;0.20;;;0.20;;
33188;SDS011;52601;53.070;10.600;2023-07-30T04:41:23;0.10;;;0.10;;
33188;SDS011;52601;53.070;10.600;2023-07-30T04:44:08;0.30;;;0.28;;
33188;SDS011;52601;53.070;10.600;2023-07-30T04:46:54;0.20;;;0.20;;
33188;SDS011;52601;53.070;10.600;2023-07-30T04:49:39;10.65;;;0.93;;
33188;SDS011;52601;53.070;10.600;2023-07-30T04:52:25;0.28;;;0.28;;
33188;SDS011;52601;53.070;10.600;2023-07-30T04:55:11;0.20;;;0.20;;
33188;SDS011;52601;53.070;10.600;2023-07-30T04:57:56;0.20;;;0.10;;
33188;SDS011;52601;53.070;10.600;2023-07-30T05:00:43;0.20;;;0.20;;
33188;SDS011;52601;53.070;10.600;2023-07-30T05:03:29;0.20;;;0.20;;
33188;SDS011;52601;53.070;10.600;2023-07-30T05:06:14;0.38;;;0.38;;
33188;SDS011;52601;53.070;10.600;2023-07-30T05:09:00;0.10;;;0.10;;
33188;SDS011;52601;53.070;10.600;2023-07-30T05:11:45;0.20;;;0.20;;
33188;SDS011;52601;53.070;10.600;2023-07-30T05:14:31;0.43;;;0.30;;
33188;SDS011;52601;53.070;10.600;2023-07-30T05:17:17;0.47;;;0.43;;
33188;SDS011;52601;53.070;10.600;2023-07-30T05:20:02;0.20;;;0.20;;
33188;SDS011;52601;53.070;10.600;2023-07-30T05:22:48;0.30;;;0.30;;
33188;SDS011;52601;53.070;10.600;2023-07-30T05:25:34;0.10;;;0.10;;
33188;SDS011;52601;53.070;10.600;2023-07-30T05:28:19;0.50;;;0.40;;
33188;SDS011;52601;53.070;10.600;2023-07-30T05:31:05;0.20;;;0.20;;
33188;SDS011;52601;53.070;10.600;2023-07-30T05:33:50;0.30;;;0.30;;
33188;SDS011;52601;53.070;10.600;2023-07-30T05:36:35;0.22;;;0.22;;
33188;SDS011;52601;53.070;10.600;2023-07-30T05:39:21;0.22;;;0.22;;
33188;SDS011;52601;53.070;10.600;2023-07-30T05:42:07;0.20;;;0.20;;
33188;SDS011;52601;53.070;10.600;2023-07-30T05:44:52;0.50;;;0.20;;
33188;SDS011;52601;53.070;10.600;2023-07-30T05:47:38;0.20;;;0.20;;
33188;SDS011;52601;53.070;10.600;2023-07-30T05:50:23;0.10;;;0.10;;
33188;SDS011;52601;53.070;10.600;2023-07-30T05:53:09;1.30;;;0.20;;
33188;SDS011;52601;53.070;10.600;2023-07-30T05:55:55;1.60;;;0.30;;
33188;SDS011;52601;53.070;10.600;2023-07-30T05:58:40;0.80;;;0.10;;
33188;SDS011;52601;53.070;10.600;2023-07-30T06:01:26;0.25;;;0.25;;
33188;SDS011;52601;53.070;10.600;2023-07-30T06:04:12;9.13;;;0.57;;
33188;SDS011;52601;53.070;10.600;2023-07-30T06:07:01;0.30;;;0.30;;
33188;SDS011;52601;53.070;10.600;2023-07-30T06:09:48;0.20;;;0.20;;
33188;SDS011;52601;53.070;10.600;2023-07-30T06:12:33;0.20;;;0.20;;
33188;SDS011;52601;53.070;10.600;2023-07-30T06:15:18;0.17;;;0.17;;
33188;SDS011;52601;53.070;10.600;2023-07-30T06:18:04;0.20;;;0.20;;
33188;SDS011;52601;53.070;10.600;2023-07-30T06:20:49;0.10;;;0.10;;
33188;SDS011;52601;53.070;10.600;2023-07-30T06:23:35;0.10;;;0.10;;
33188;SDS011;52601;53.070;10.600;2023-07-30T06:26:20;0.10;;;0.10;;
33188;SDS011;52601;53.070;10.600;2023-07-30T06:29:06;0.10;;;0.10;;
33188;SDS011;52601;53.070;10.600;2023-07-30T06:31:52;0.80;;;0.40;;
33188;SDS011;52601;53.070;10.600;2023-07-30T06:34:38;0.20;;;0.20;;
33188;SDS011;52601;53.070;10.600;2023-07-30T06:37:23;0.17;;;0.15;;
33188;SDS011;52601;53.070;10.600;2023-07-30T06:40:09;3.92;;;0.68;;
33188;SDS011;52601;53.070;10.600;2023-07-30T06:42:54;0.20;;;0.20;;
33188;SDS011;52601;53.070;10.600;2023-07-30T06:45:40;0.22;;;0.22;;
33188;SDS011;52601;53.070;10.600;2023-07-30T06:48:25;0.13;;;0.13;;
33188;SDS011;52601;53.070;10.600;2023-07-30T06:51:10;0.30;;;0.30;;
33188;SDS011;52601;53.070;10.600;2023-07-30T06:53:58;0.40;;;0.10;;
33188;SDS011;52601;53.070;10.600;2023-07-30T06:56:43;0.80;;;0.50;;
33188;SDS011;52601;53.070;10.600;2023-07-30T06:59:29;0.10;;;0.10;;
33188;SDS011;52601;53.070;10.600;2023-07-30T07:02:14;0.50;;;0.20;;
33188;SDS011;52601;53.070;10.600;2023-07-30T07:05:00;0.30;;;0.10;;
33188;SDS011;52601;53.070;10.600;2023-07-30T07:07:45;0.28;;;0.28;;
33188;SDS011;52601;53.070;10.600;2023-07-30T07:10:31;0.30;;;0.30;;
33188;SDS011;52601;53.070;10.600;2023-07-30T07:13:16;6.00;;;0.90;;
33188;SDS011;52601;53.070;10.600;2023-07-30T07:16:02;0.10;;;0.10;;
33188;SDS011;52601;53.070;10.600;2023-07-30T07:18:49;0.03;;;0.03;;
33188;SDS011;52601;53.070;10.600;2023-07-30T07:21:34;0.70;;;0.55;;
33188;SDS011;52601;53.070;10.600;2023-07-30T07:24:21;0.30;;;0.20;;
33188;SDS011;52601;53.070;10.600;2023-07-30T07:27:06;0.10;;;0.10;;
33188;SDS011;52601;53.070;10.600;2023-07-30T07:29:52;1.50;;;0.52;;
33188;SDS011;52601;53.070;10.600;2023-07-30T07:32:38;0.10;;;0.10;;
33188;SDS011;52601;53.070;10.600;2023-07-30T07:35:24;0.15;;;0.15;;
33188;SDS011;52601;53.070;10.600;2023-07-30T07:38:09;0.20;;;0.20;;
33188;SDS011;52601;53.070;10.600;2023-07-30T07:40:55;6.90;;;0.90;;
33188;SDS011;52601;53.070;10.600;2023-07-30T07:43:41;0.30;;;0.30;;
33188;SDS011;52601;53.070;10.600;2023-07-30T07:46:26;0.13;;;0.13;;
33188;SDS011;52601;53.070;10.600;2023-07-30T07:49:12;0.40;;;0.40;;
33188;SDS011;52601;53.070;10.600;2023-07-30T07:51:58;2.60;;;0.40;;
33188;SDS011;52601;53.070;10.600;2023-07-30T07:54:43;0.30;;;0.20;;
33188;SDS011;52601;53.070;10.600;2023-07-30T07:57:29;0.60;;;0.50;;
33188;SDS011;52601;53.070;10.600;2023-07-30T08:00:15;1.60;;;0.68;;
33188;SDS011;52601;53.070;10.600;2023-07-30T08:03:02;6.50;;;0.80;;
33188;SDS011;52601;53.070;10.600;2023-07-30T08:05:48;0.80;;;0.50;;
33188;SDS011;52601;53.070;10.600;2023-07-30T08:08:34;0.50;;;0.20;;
33188;SDS011;52601;53.070;10.600;2023-07-30T08:11:19;4.80;;;1.40;;
33188;SDS011;52601;53.070;10.600;2023-07-30T08:14:05;0.17;;;0.10;;
33188;SDS011;52601;53.070;10.600;2023-07-30T08:16:50;0.20;;;0.20;;
33188;SDS011;52601;53.070;10.600;2023-07-30T08:19:36;0.20;;;0.20;;
33188;SDS011;52601;53.070;10.600;2023-07-30T08:22:21;0.08;;;0.08;;
33188;SDS011;52601;53.070;10.600;2023-07-30T08:25:07;0.10;;;0.10;;
33188;SDS011;52601;53.070;10.600;2023-07-30T08:27:52;2.80;;;0.80;;
33188;SDS011;52601;53.070;10.600;2023-07-30T08:30:38;0.40;;;0.40;;
33188;SDS011;52601;53.070;10.600;2023-07-30T08:33:23;0.10;;;0.10;;
33188;SDS011;52601;53.070;10.600;2023-07-30T08:36:11;0.30;;;0.30;;
33188;SDS011;52601;53.070;10.600;2023-07-30T08:38:57;0.20;;;0.20;;
33188;SDS011;52601;53.070;10.600;2023-07-30T08:41:43;0.20;;;0.20;;
33188;SDS011;52601;53.070;10.600;2023-07-30T08:44:29;1.83;;;0.68;;
33188;SDS011;52601;53.070;10.600;2023-07-30T08:47:14;0.20;;;0.20;;
33188;SDS011;52601;53.070;10.600;2023-07-30T08:50:00;0.50;;;0.50;;
33188;SDS011;52601;53.070;10.600;2023-07-30T08:52:45;4.05;;;1.65;;
33188;SDS011;52601;53.070;10.600;2023-07-30T08:55:33;5.63;;;1.93;;
33188;SDS011;52601;53.070;10.600;2023-07-30T08:58:19;4.37;;;1.87;;
33188;SDS011;52601;53.070;10.600;2023-07-30T09:01:06;5.53;;;1.80;;
33188;SDS011;52601;53.070;10.600;2023-07-30T09:03:55;4.00;;;1.65;;
33188;SDS011;52601;53.070;10.600;2023-07-30T09:06:48;4.28;;;1.33;;
33188;SDS011;52601;53.070;10.600;2023-07-30T09:09:37;4.45;;;1.70;;
33188;SDS011;52601;53.070;10.600;2023-07-30T09:12:30;4.55;;;1.52;;
33188;SDS011;52601;53.070;10.600;2023-07-30T09:15:17;5.28;;;1.70;;
33188;SDS011;52601;53.070;10.600;2023-07-30T09:18:03;6.53;;;1.60;;
33188;SDS011;52601;53.070;10.600;2023-07-30T09:20:49;5.55;;;2.00;;
33188;SDS011;52601;53.070;10.600;2023-07-30T09:23:39;3.87;;;1.40;;
33188;SDS011;52601;53.070;10.600;2023-07-30T09:26:26;4.00;;;1.40;;
33188;SDS011;52601;53.070;10.600;2023-07-30T09:29:11;5.20;;;1.83;;
33188;SDS011;52601;53.070;10.600;2023-07-30T09:31:57;3.35;;;1.52;;
33188;SDS011;52601;53.070;10.600;2023-07-30T09:34:44;5.03;;;1.98;;
33188;SDS011;52601;53.070;10.600;2023-07-30T09:37:31;7.30;;;1.95;;
33188;SDS011;52601;53.070;10.600;2023-07-30T09:40:17;4.57;;;1.65;;
33188;SDS011;52601;53.070;10.600;2023-07-30T09:43:03;4.65;;;1.90;;
33188;SDS011;52601;53.070;10.600;2023-07-30T09:45:49;4.68;;;1.80;;
33188;SDS011;52601;53.070;10.600;2023-07-30T09:48:35;5.72;;;1.63;;
33188;SDS011;52601;53.070;10.600;2023-07-30T09:51:20;3.75;;;1.70;;
33188;SDS011;52601;53.070;10.600;2023-07-30T09:54:09;4.80;;;1.60;;
33188;SDS011;52601;53.070;10.600;2023-07-30T09:56:56;4.63;;;1.70;;
33188;SDS011;52601;53.070;10.600;2023-07-30T09:59:42;4.60;;;1.73;;
33188;SDS011;52601;53.070;10.600;2023-07-30T10:02:27;6.37;;;1.97;;
33188;SDS011;52601;53.070;10.600;2023-07-30T10:05:18;5.40;;;1.80;;
33188;SDS011;52601;53.070;10.600;2023-07-30T10:08:12;4.97;;;1.85;;
33188;SDS011;52601;53.070;10.600;2023-07-30T10:11:09;4.95;;;1.70;;
33188;SDS011;52601;53.070;10.600;2023-07-30T10:13:56;4.55;;;1.85;;
33188;SDS011;52601;53.070;10.600;2023-07-30T10:16:54;5.50;;;1.80;;
33188;SDS011;52601;53.070;10.600;2023-07-30T10:19:47;5.60;;;1.80;;
33188;SDS011;52601;53.070;10.600;2023-07-30T10:22:36;5.28;;;1.83;;
33188;SDS011;52601;53.070;10.600;2023-07-30T10:28:37;4.18;;;1.70;;
33188;SDS011;52601;53.070;10.600;2023-07-30T10:31:37;5.63;;;2.08;;
33188;SDS011;52601;53.070;10.600;2023-07-30T10:34:43;4.93;;;1.52;;
33188;SDS011;52601;53.070;10.600;2023-07-30T10:37:30;6.55;;;2.00;;
33188;SDS011;52601;53.070;10.600;2023-07-30T10:40:15;7.03;;;1.88;;
33188;SDS011;52601;53.070;10.600;2023-07-30T10:43:02;3.42;;;1.40;;
33188;SDS011;52601;53.070;10.600;2023-07-30T10:45:48;4.75;;;1.88;;
33188;SDS011;52601;53.070;10.600;2023-07-30T10:48:37;7.03;;;1.70;;
33188;SDS011;52601;53.070;10.600;2023-07-30T10:51:27;5.30;;;2.03;;
33188;SDS011;52601;53.070;10.600;2023-07-30T10:54:15;4.90;;;1.40;;
33188;SDS011;52601;53.070;10.600;2023-07-30T10:57:02;5.57;;;2.03;;
33188;SDS011;52601;53.070;10.600;2023-07-30T10:59:48;4.65;;;2.00;;
33188;SDS011;52601;53.070;10.600;2023-07-30T11:02:34;6.05;;;1.63;;
33188;SDS011;52601;53.070;10.600;2023-07-30T11:05:20;6.97;;;1.83;;
33188;SDS011;52601;53.070;10.600;2023-07-30T11:08:05;5.97;;;1.50;;
33188;SDS011;52601;53.070;10.600;2023-07-30T11:10:51;4.63;;;1.50;;
33188;SDS011;52601;53.070;10.600;2023-07-30T11:13:38;5.78;;;1.70;;
33188;SDS011;52601;53.070;10.600;2023-07-30T11:16:26;3.95;;;1.65;;
33188;SDS011;52601;53.070;10.600;2023-07-30T11:19:11;4.88;;;1.35;;
33188;SDS011;52601;53.070;10.600;2023-07-30T11:21:59;5.32;;;1.60;;
33188;SDS011;52601;53.070;10.600;2023-07-30T11:24:44;8.02;;;1.92;;
33188;SDS011;52601;53.070;10.600;2023-07-30T11:27:30;7.00;;;2.00;;
33188;SDS011;52601;53.070;10.600;2023-07-30T11:30:31;4.63;;;1.60;;
33188;SDS011;52601;53.070;10.600;2023-07-30T11:33:17;6.83;;;1.60;;
33188;SDS011;52601;53.070;10.600;2023-07-30T11:36:02;5.40;;;2.08;;
33188;SDS011;52601;53.070;10.600;2023-07-30T11:38:49;7.70;;;1.80;;
33188;SDS011;52601;53.070;10.600;2023-07-30T11:41:38;7.72;;;2.08;;
33188;SDS011;52601;53.070;10.600;2023-07-30T11:47:20;5.55;;;2.00;;
33188;SDS011;52601;53.070;10.600;2023-07-30T11:50:07;5.57;;;2.00;;
33188;SDS011;52601;53.070;10.600;2023-07-30T11:52:56;6.07;;;2.13;;
33188;SDS011;52601;53.070;10.600;2023-07-30T11:55:43;6.13;;;2.10;;
33188;SDS011;52601;53.070;10.600;2023-07-30T11:58:29;5.53;;;1.92;;
33188;SDS011;52601;53.070;10.600;2023-07-30T12:01:15;8.18;;;2.08;;
33188;SDS011;52601;53.070;10.600;2023-07-30T12:04:02;4.63;;;1.95;;
33188;SDS011;52601;53.070;10.600;2023-07-30T12:06:50;5.53;;;2.10;;
33188;SDS011;52601;53.070;10.600;2023-07-30T12:09:39;4.68;;;1.90;;
33188;SDS011;52601;53.070;10.600;2023-07-30T12:12:26;5.70;;;1.80;;
33188;SDS011;52601;53.070;10.600;2023-07-30T12:15:13;5.65;;;2.00;;
33188;SDS011;52601;53.070;10.600;2023-07-30T12:17:58;4.72;;;2.17;;
33188;SDS011;52601;53.070;10.600;2023-07-30T12:20:45;5.07;;;2.10;;
33188;SDS011;52601;53.070;10.600;2023-07-30T12:23:31;4.72;;;2.20;;
33188;SDS011;52601;53.070;10.600;2023-07-30T12:26:17;7.05;;;2.38;;
33188;SDS011;52601;53.070;10.600;2023-07-30T12:29:02;7.90;;;2.05;;
33188;SDS011;52601;53.070;10.600;2023-07-30T12:31:48;5.13;;;2.00;;
33188;SDS011;52601;53.070;10.600;2023-07-30T12:34:35;4.30;;;2.03;;
33188;SDS011;52601;53.070;10.600;2023-07-30T12:37:21;4.50;;;1.80;;
33188;SDS011;52601;53.070;10.600;2023-07-30T12:40:07;7.50;;;2.40;;
33188;SDS011;52601;53.070;10.600;2023-07-30T12:42:53;6.03;;;2.35;;
33188;SDS011;52601;53.070;10.600;2023-07-30T12:45:39;6.55;;;2.20;;
33188;SDS011;52601;53.070;10.600;2023-07-30T12:48:24;4.05;;;1.83;;
33188;SDS011;52601;53.070;10.600;2023-07-30T12:51:10;4.90;;;2.00;;
33188;SDS011;52601;53.070;10.600;2023-07-30T12:53:55;4.55;;;2.00;;
33188;SDS011;52601;53.070;10.600;2023-07-30T12:56:41;5.10;;;2.17;;
33188;SDS011;52601;53.070;10.600;2023-07-30T12:59:27;6.50;;;2.25;;
33188;SDS011;52601;53.070;10.600;2023-07-30T13:02:12;8.47;;;2.17;;
33188;SDS011;52601;53.070;10.600;2023-07-30T13:04:58;5.00;;;2.10;;
33188;SDS011;52601;53.070;10.600;2023-07-30T13:07:43;2.47;;;1.20;;
33188;SDS011;52601;53.070;10.600;2023-07-30T13:10:29;3.70;;;1.63;;
33188;SDS011;52601;53.070;10.600;2023-07-30T13:13:15;5.78;;;2.40;;
33188;SDS011;52601;53.070;10.600;2023-07-30T13:16:00;3.95;;;1.80;;
33188;SDS011;52601;53.070;10.600;2023-07-30T13:18:47;5.43;;;1.77;;
33188;SDS011;52601;53.070;10.600;2023-07-30T13:21:32;4.50;;;1.70;;
33188;SDS011;52601;53.070;10.600;2023-07-30T13:24:18;7.22;;;2.05;;
33188;SDS011;52601;53.070;10.600;2023-07-30T13:27:04;4.68;;;1.70;;
33188;SDS011;52601;53.070;10.600;2023-07-30T13:29:49;6.38;;;1.73;;
33188;SDS011;52601;53.070;10.600;2023-07-30T13:32:35;3.20;;;1.67;;
33188;SDS011;52601;53.070;10.600;2023-07-30T13:35:21;5.07;;;1.65;;
33188;SDS011;52601;53.070;10.600;2023-07-30T13:38:06;4.30;;;1.80;;
33188;SDS011;52601;53.070;10.600;2023-07-30T13:40:53;5.82;;;1.63;;
33188;SDS011;52601;53.070;10.600;2023-07-30T13:43:38;5.32;;;1.83;;
33188;SDS011;52601;53.070;10.600;2023-07-30T13:46:24;3.85;;;1.70;;
33188;SDS011;52601;53.070;10.600;2023-07-30T13:49:10;4.65;;;1.70;;
33188;SDS011;52601;53.070;10.600;2023-07-30T13:51:55;6.32;;;1.60;;
33188;SDS011;52601;53.070;10.600;2023-07-30T13:54:41;5.45;;;1.55;;
33188;SDS011;52601;53.070;10.600;2023-07-30T13:57:27;5.63;;;1.85;;
33188;SDS011;52601;53.070;10.600;2023-07-30T14:00:13;4.70;;;1.92;;
33188;SDS011;52601;53.070;10.600;2023-07-30T14:02:59;4.40;;;1.60;;
33188;SDS011;52601;53.070;10.600;2023-07-30T14:05:45;5.45;;;2.20;;
33188;SDS011;52601;53.070;10.600;2023-07-30T14:08:30;4.35;;;1.50;;
33188;SDS011;52601;53.070;10.600;2023-07-30T14:11:16;5.95;;;1.65;;
33188;SDS011;52601;53.070;10.600;2023-07-30T14:14:01;6.57;;;2.03;;
33188;SDS011;52601;53.070;10.600;2023-07-30T14:16:47;5.50;;;2.05;;
33188;SDS011;52601;53.070;10.600;2023-07-30T14:19:33;4.25;;;1.70;;
33188;SDS011;52601;53.070;10.600;2023-07-30T14:22:19;5.88;;;2.10;;
33188;SDS011;52601;53.070;10.600;2023-07-30T14:25:05;5.30;;;1.85;;
33188;SDS011;52601;53.070;10.600;2023-07-30T14:27:51;3.88;;;1.77;;
33188;SDS011;52601;53.070;10.600;2023-07-30T14:30:37;4.63;;;1.73;;
33188;SDS011;52601;53.070;10.600;2023-07-30T14:33:29;11.00;;;2.90;;
33188;SDS011;52601;53.070;10.600;2023-07-30T14:36:15;239.02;;;28.05;;
33188;SDS011;52601;53.070;10.600;2023-07-30T14:39:00;269.02;;;33.45;;
33188;SDS011;52601;53.070;10.600;2023-07-30T14:41:46;1330.47;;;172.75;;
33188;SDS011;52601;53.070;10.600;2023-07-30T14:44:32;243.65;;;33.10;;
33188;SDS011;52601;53.070;10.600;2023-07-30T14:47:17;162.35;;;22.58;;
33188;SDS011;52601;53.070;10.600;2023-07-30T14:50:03;387.43;;;52.73;;
33188;SDS011;52601;53.070;10.600;2023-07-30T14:52:50;1075.43;;;147.85;;
33188;SDS011;52601;53.070;10.600;2023-07-30T14:55:36;415.07;;;58.37;;
33188;SDS011;52601;53.070;10.600;2023-07-30T14:58:21;625.20;;;85.05;;
33188;SDS011;52601;53.070;10.600;2023-07-30T15:01:07;121.53;;;19.97;;
33188;SDS011;52601;53.070;10.600;2023-07-30T15:03:56;940.33;;;140.13;;
33188;SDS011;52601;53.070;10.600;2023-07-30T15:06:42;907.38;;;129.00;;
33188;SDS011;52601;53.070;10.600;2023-07-30T15:09:28;1146.22;;;162.85;;
33188;SDS011;52601;53.070;10.600;2023-07-30T15:12:19;449.35;;;66.30;;
33188;SDS011;52601;53.070;10.600;2023-07-30T15:15:05;509.20;;;77.83;;
33188;SDS011;52601;53.070;10.600;2023-07-30T15:17:51;160.20;;;25.20;;
33188;SDS011;52601;53.070;10.600;2023-07-30T15:20:37;341.90;;;50.92;;
33188;SDS011;52601;53.070;10.600;2023-07-30T15:23:24;125.40;;;21.13;;
33188;SDS011;52601;53.070;10.600;2023-07-30T15:26:10;17.42;;;4.90;;
33188;SDS011;52601;53.070;10.600;2023-07-30T15:28:55;13.45;;;4.00;;
33188;SDS011;52601;53.070;10.600;2023-07-30T15:31:41;16.85;;;4.47;;
33188;SDS011;52601;53.070;10.600;2023-07-30T15:34:26;24.75;;;5.65;;
33188;SDS011;52601;53.070;10.600;2023-07-30T15:37:12;9.20;;;3.58;;
33188;SDS011;52601;53.070;10.600;2023-07-30T15:39:57;10.15;;;3.88;;
33188;SDS011;52601;53.070;10.600;2023-07-30T15:42:43;11.00;;;4.75;;
33188;SDS011;52601;53.070;10.600;2023-07-30T15:45:28;114.28;;;18.27;;
33188;SDS011;52601;53.070;10.600;2023-07-30T15:48:14;8.95;;;3.45;;
33188;SDS011;52601;53.070;10.600;2023-07-30T15:51:01;161.83;;;23.50;;
33188;SDS011;52601;53.070;10.600;2023-07-30T15:53:49;37.28;;;7.28;;
33188;SDS011;52601;53.070;10.600;2023-07-30T15:56:35;175.98;;;26.25;;
33188;SDS011;52601;53.070;10.600;2023-07-30T15:59:21;7.63;;;3.00;;
33188;SDS011;52601;53.070;10.600;2023-07-30T16:02:07;7.68;;;2.90;;
33188;SDS011;52601;53.070;10.600;2023-07-30T16:04:53;6.18;;;2.55;;
33188;SDS011;52601;53.070;10.600;2023-07-30T16:07:39;4.63;;;2.42;;
33188;SDS011;52601;53.070;10.600;2023-07-30T16:10:26;5.57;;;2.40;;
33188;SDS011;52601;53.070;10.600;2023-07-30T16:13:11;6.55;;;2.80;;
33188;SDS011;52601;53.070;10.600;2023-07-30T16:16:06;5.80;;;2.60;;
33188;SDS011;52601;53.070;10.600;2023-07-30T16:18:53;7.72;;;2.92;;
33188;SDS011;52601;53.070;10.600;2023-07-30T16:21:41;7.95;;;2.90;;
33188;SDS011;52601;53.070;10.600;2023-07-30T16:24:29;6.03;;;2.78;;
33188;SDS011;52601;53.070;10.600;2023-07-30T16:27:16;7.13;;;2.70;;
33188;SDS011;52601;53.070;10.600;2023-07-30T16:30:04;7.60;;;2.72;;